sensor_id;sensor_type;location;lat;lon;timestamp;P1;durP1;ratioP1;P2;durP2;ratioP2
46363;SDS011;32071;49.036;9.344;2023-10-31T00:00:32;1.77;;;1.57;;
46363;SDS011;32071;49.036;9.344;2023-10-31T00:02:59;3.40;;;2.37;;
46363;SDS011;32071;49.036;9.344;2023-10-31T00:05:24;1.30;;;1.20;;
46363;SDS011;32071;49.036;9.344;2023-10-31T00:07:50;1.47;;;1.30;;
46363;SDS011;32071;49.036;9.344;2023-10-31T00:10:15;1.47;;;1.30;;
46363;SDS011;32071;49.036;9.344;2023-10-31T00:12:41;1.50;;;1.40;;
46363;SDS011;32071;49.036;9.344;2023-10-31T00:15:06;1.80;;;1.57;;
46363;SDS011;32071;49.036;9.344;2023-10-31T00:17:32;2.17;;;1.60;;
46363;SDS011;32071;49.036;9.344;2023-10-31T00:19:58;1.60;;;1.50;;
46363;SDS011;32071;49.036;9.344;2023-10-31T00:22:23;1.43;;;1.33;;
46363;SDS011;32071;49.036;9.344;2023-10-31T00:24:49;1.70;;;1.50;;
46363;SDS011;32071;49.036;9.344;2023-10-31T00:27:14;1.23;;;1.13;;
46363;SDS011;32071;49.036;9.344;2023-10-31T00:29:40;1.50;;;1.00;;
46363;SDS011;32071;49.036;9.344;2023-10-31T00:32:06;1.37;;;1.27;;
46363;SDS011;32071;49.036;9.344;2023-10-31T00:34:31;2.03;;;1.40;;
46363;SDS011;32071;49.036;9.344;2023-10-31T00:36:57;1.20;;;1.10;;
46363;SDS011;32071;49.036;9.344;2023-10-31T00:39:22;1.70;;;1.17;;
46363;SDS011;32071;49.036;9.344;2023-10-31T00:41:48;0.90;;;0.90;;
46363;SDS011;32071;49.036;9.344;2023-10-31T00:44:14;2.30;;;1.00;;
46363;SDS011;32071;49.036;9.344;2023-10-31T00:46:40;0.90;;;0.90;;
46363;SDS011;32071;49.036;9.344;2023-10-31T00:49:05;1.97;;;1.10;;
46363;SDS011;32071;49.036;9.344;2023-10-31T00:51:31;0.83;;;0.83;;
46363;SDS011;32071;49.036;9.344;2023-10-31T00:53:57;0.90;;;0.90;;
46363;SDS011;32071;49.036;9.344;2023-10-31T00:56:23;1.93;;;0.90;;
46363;SDS011;32071;49.036;9.344;2023-10-31T00:58:48;1.30;;;0.90;;
46363;SDS011;32071;49.036;9.344;2023-10-31T01:01:14;3.03;;;1.03;;
46363;SDS011;32071;49.036;9.344;2023-10-31T01:03:39;1.43;;;1.00;;
46363;SDS011;32071;49.036;9.344;2023-10-31T01:06:05;1.10;;;0.97;;
46363;SDS011;32071;49.036;9.344;2023-10-31T01:08:31;1.00;;;0.80;;
46363;SDS011;32071;49.036;9.344;2023-10-31T01:10:56;0.97;;;0.87;;
46363;SDS011;32071;49.036;9.344;2023-10-31T01:13:22;0.93;;;0.90;;
46363;SDS011;32071;49.036;9.344;2023-10-31T01:15:47;2.43;;;1.00;;
46363;SDS011;32071;49.036;9.344;2023-10-31T01:18:13;0.90;;;0.90;;
46363;SDS011;32071;49.036;9.344;2023-10-31T01:20:39;1.40;;;1.20;;
46363;SDS011;32071;49.036;9.344;2023-10-31T01:23:04;0.90;;;0.90;;
46363;SDS011;32071;49.036;9.344;2023-10-31T01:25:30;0.87;;;0.80;;
46363;SDS011;32071;49.036;9.344;2023-10-31T01:27:55;1.30;;;0.90;;
46363;SDS011;32071;49.036;9.344;2023-10-31T01:30:21;1.33;;;1.23;;
46363;SDS011;32071;49.036;9.344;2023-10-31T01:32:47;0.90;;;0.90;;
46363;SDS011;32071;49.036;9.344;2023-10-31T01:35:12;1.03;;;1.00;;
46363;SDS011;32071;49.036;9.344;2023-10-31T01:37:38;1.07;;;0.97;;
46363;SDS011;32071;49.036;9.344;2023-10-31T01:40:04;2.20;;;1.00;;
46363;SDS011;32071;49.036;9.344;2023-10-31T01:42:30;1.17;;;1.00;;
46363;SDS011;32071;49.036;9.344;2023-10-31T01:44:56;1.10;;;1.00;;
46363;SDS011;32071;49.036;9.344;2023-10-31T01:47:21;2.53;;;1.30;;
46363;SDS011;32071;49.036;9.344;2023-10-31T01:49:48;1.63;;;1.10;;
46363;SDS011;32071;49.036;9.344;2023-10-31T01:52:15;1.60;;;1.10;;
46363;SDS011;32071;49.036;9.344;2023-10-31T01:54:41;2.00;;;1.10;;
46363;SDS011;32071;49.036;9.344;2023-10-31T01:57:08;3.10;;;0.80;;
46363;SDS011;32071;49.036;9.344;2023-10-31T01:59:34;3.43;;;1.00;;
46363;SDS011;32071;49.036;9.344;2023-10-31T02:02:00;1.67;;;1.50;;
46363;SDS011;32071;49.036;9.344;2023-10-31T02:04:26;1.10;;;1.00;;
46363;SDS011;32071;49.036;9.344;2023-10-31T02:06:52;1.60;;;0.97;;
46363;SDS011;32071;49.036;9.344;2023-10-31T02:09:17;0.93;;;0.93;;
46363;SDS011;32071;49.036;9.344;2023-10-31T02:11:43;1.00;;;1.00;;
46363;SDS011;32071;49.036;9.344;2023-10-31T02:14:08;1.20;;;1.10;;
46363;SDS011;32071;49.036;9.344;2023-10-31T02:16:34;0.77;;;0.70;;
46363;SDS011;32071;49.036;9.344;2023-10-31T02:19:00;0.90;;;0.90;;
46363;SDS011;32071;49.036;9.344;2023-10-31T02:21:25;0.90;;;0.90;;
46363;SDS011;32071;49.036;9.344;2023-10-31T02:24:03;2.30;;;1.10;;
46363;SDS011;32071;49.036;9.344;2023-10-31T02:26:30;0.70;;;0.70;;
46363;SDS011;32071;49.036;9.344;2023-10-31T02:28:56;2.40;;;1.00;;
46363;SDS011;32071;49.036;9.344;2023-10-31T02:31:22;0.77;;;0.73;;
46363;SDS011;32071;49.036;9.344;2023-10-31T02:33:47;1.20;;;1.10;;
46363;SDS011;32071;49.036;9.344;2023-10-31T02:36:13;1.00;;;0.80;;
46363;SDS011;32071;49.036;9.344;2023-10-31T02:38:39;1.40;;;1.00;;
46363;SDS011;32071;49.036;9.344;2023-10-31T02:41:04;1.60;;;1.20;;
46363;SDS011;32071;49.036;9.344;2023-10-31T02:43:30;1.53;;;1.03;;
46363;SDS011;32071;49.036;9.344;2023-10-31T02:45:56;1.53;;;0.80;;
46363;SDS011;32071;49.036;9.344;2023-10-31T02:48:23;3.43;;;0.90;;
46363;SDS011;32071;49.036;9.344;2023-10-31T02:50:49;0.63;;;0.63;;
46363;SDS011;32071;49.036;9.344;2023-10-31T02:53:17;0.80;;;0.70;;
46363;SDS011;32071;49.036;9.344;2023-10-31T02:55:43;1.23;;;0.87;;
46363;SDS011;32071;49.036;9.344;2023-10-31T02:58:09;3.03;;;1.00;;
46363;SDS011;32071;49.036;9.344;2023-10-31T03:00:35;1.10;;;0.80;;
46363;SDS011;32071;49.036;9.344;2023-10-31T03:03:00;1.40;;;1.00;;
46363;SDS011;32071;49.036;9.344;2023-10-31T03:05:26;2.10;;;0.90;;
46363;SDS011;32071;49.036;9.344;2023-10-31T03:07:51;1.00;;;0.90;;
46363;SDS011;32071;49.036;9.344;2023-10-31T03:10:17;2.17;;;0.90;;
46363;SDS011;32071;49.036;9.344;2023-10-31T03:12:44;0.83;;;0.63;;
46363;SDS011;32071;49.036;9.344;2023-10-31T03:15:09;0.90;;;0.77;;
46363;SDS011;32071;49.036;9.344;2023-10-31T03:17:35;2.93;;;1.00;;
46363;SDS011;32071;49.036;9.344;2023-10-31T03:20:01;0.93;;;0.90;;
46363;SDS011;32071;49.036;9.344;2023-10-31T03:22:27;2.30;;;2.00;;
46363;SDS011;32071;49.036;9.344;2023-10-31T03:24:53;3.87;;;1.97;;
46363;SDS011;32071;49.036;9.344;2023-10-31T03:27:18;2.70;;;1.43;;
46363;SDS011;32071;49.036;9.344;2023-10-31T03:29:44;1.63;;;1.07;;
46363;SDS011;32071;49.036;9.344;2023-10-31T03:32:10;1.90;;;1.43;;
46363;SDS011;32071;49.036;9.344;2023-10-31T03:34:36;3.17;;;1.47;;
46363;SDS011;32071;49.036;9.344;2023-10-31T03:37:03;1.90;;;1.37;;
46363;SDS011;32071;49.036;9.344;2023-10-31T03:39:29;1.90;;;1.20;;
46363;SDS011;32071;49.036;9.344;2023-10-31T03:41:54;7.63;;;1.27;;
46363;SDS011;32071;49.036;9.344;2023-10-31T03:44:20;1.33;;;0.90;;
46363;SDS011;32071;49.036;9.344;2023-10-31T03:46:46;1.20;;;1.10;;
46363;SDS011;32071;49.036;9.344;2023-10-31T03:49:11;3.60;;;1.30;;
46363;SDS011;32071;49.036;9.344;2023-10-31T03:51:37;2.47;;;1.13;;
46363;SDS011;32071;49.036;9.344;2023-10-31T03:54:03;1.73;;;1.07;;
46363;SDS011;32071;49.036;9.344;2023-10-31T03:56:28;1.77;;;1.40;;
46363;SDS011;32071;49.036;9.344;2023-10-31T03:58:54;1.13;;;1.03;;
46363;SDS011;32071;49.036;9.344;2023-10-31T04:01:20;2.90;;;1.00;;
46363;SDS011;32071;49.036;9.344;2023-10-31T04:03:45;8.23;;;1.10;;
46363;SDS011;32071;49.036;9.344;2023-10-31T04:06:11;1.07;;;0.97;;
46363;SDS011;32071;49.036;9.344;2023-10-31T04:08:37;1.93;;;1.00;;
46363;SDS011;32071;49.036;9.344;2023-10-31T04:11:02;3.03;;;1.13;;
46363;SDS011;32071;49.036;9.344;2023-10-31T04:13:28;1.00;;;0.90;;
46363;SDS011;32071;49.036;9.344;2023-10-31T04:15:54;0.70;;;0.60;;
46363;SDS011;32071;49.036;9.344;2023-10-31T04:18:20;0.70;;;0.70;;
46363;SDS011;32071;49.036;9.344;2023-10-31T04:20:45;2.60;;;0.80;;
46363;SDS011;32071;49.036;9.344;2023-10-31T04:23:11;0.90;;;0.70;;
46363;SDS011;32071;49.036;9.344;2023-10-31T04:25:37;0.70;;;0.70;;
46363;SDS011;32071;49.036;9.344;2023-10-31T04:28:03;2.70;;;0.90;;
46363;SDS011;32071;49.036;9.344;2023-10-31T04:30:29;1.17;;;0.70;;
46363;SDS011;32071;49.036;9.344;2023-10-31T04:32:54;0.80;;;0.80;;
46363;SDS011;32071;49.036;9.344;2023-10-31T04:35:20;1.80;;;0.70;;
46363;SDS011;32071;49.036;9.344;2023-10-31T04:37:46;0.63;;;0.60;;
46363;SDS011;32071;49.036;9.344;2023-10-31T04:40:11;0.70;;;0.70;;
46363;SDS011;32071;49.036;9.344;2023-10-31T04:42:38;4.00;;;0.80;;
46363;SDS011;32071;49.036;9.344;2023-10-31T04:45:05;1.00;;;0.90;;
46363;SDS011;32071;49.036;9.344;2023-10-31T04:47:31;2.00;;;0.80;;
46363;SDS011;32071;49.036;9.344;2023-10-31T04:49:57;1.63;;;0.83;;
46363;SDS011;32071;49.036;9.344;2023-10-31T04:52:22;1.50;;;0.90;;
46363;SDS011;32071;49.036;9.344;2023-10-31T04:54:50;2.77;;;1.00;;
46363;SDS011;32071;49.036;9.344;2023-10-31T04:57:16;1.50;;;0.90;;
46363;SDS011;32071;49.036;9.344;2023-10-31T04:59:42;1.03;;;0.90;;
46363;SDS011;32071;49.036;9.344;2023-10-31T05:02:08;0.60;;;0.60;;
46363;SDS011;32071;49.036;9.344;2023-10-31T05:04:33;1.63;;;0.70;;
46363;SDS011;32071;49.036;9.344;2023-10-31T05:06:59;4.10;;;3.10;;
46363;SDS011;32071;49.036;9.344;2023-10-31T05:09:24;1.00;;;0.60;;
46363;SDS011;32071;49.036;9.344;2023-10-31T05:11:51;2.10;;;0.97;;
46363;SDS011;32071;49.036;9.344;2023-10-31T05:14:17;2.73;;;0.60;;
46363;SDS011;32071;49.036;9.344;2023-10-31T05:16:43;1.93;;;0.90;;
46363;SDS011;32071;49.036;9.344;2023-10-31T05:19:09;3.30;;;0.70;;
46363;SDS011;32071;49.036;9.344;2023-10-31T05:21:35;0.67;;;0.67;;
46363;SDS011;32071;49.036;9.344;2023-10-31T05:24:01;1.43;;;0.80;;
46363;SDS011;32071;49.036;9.344;2023-10-31T05:26:27;1.00;;;0.70;;
46363;SDS011;32071;49.036;9.344;2023-10-31T05:28:54;4.03;;;1.00;;
46363;SDS011;32071;49.036;9.344;2023-10-31T05:31:20;3.73;;;1.00;;
46363;SDS011;32071;49.036;9.344;2023-10-31T05:33:46;3.03;;;0.80;;
46363;SDS011;32071;49.036;9.344;2023-10-31T05:36:18;1.10;;;0.70;;
46363;SDS011;32071;49.036;9.344;2023-10-31T05:38:44;2.37;;;0.93;;
46363;SDS011;32071;49.036;9.344;2023-10-31T05:41:10;0.70;;;0.60;;
46363;SDS011;32071;49.036;9.344;2023-10-31T05:43:36;1.20;;;0.90;;
46363;SDS011;32071;49.036;9.344;2023-10-31T05:46:01;0.60;;;0.60;;
46363;SDS011;32071;49.036;9.344;2023-10-31T05:48:27;1.37;;;0.80;;
46363;SDS011;32071;49.036;9.344;2023-10-31T05:50:52;1.80;;;0.73;;
46363;SDS011;32071;49.036;9.344;2023-10-31T05:53:18;1.20;;;0.90;;
46363;SDS011;32071;49.036;9.344;2023-10-31T05:55:44;1.10;;;0.90;;
46363;SDS011;32071;49.036;9.344;2023-10-31T05:58:09;1.17;;;1.07;;
46363;SDS011;32071;49.036;9.344;2023-10-31T06:00:35;0.80;;;0.80;;
46363;SDS011;32071;49.036;9.344;2023-10-31T06:03:02;1.53;;;0.97;;
46363;SDS011;32071;49.036;9.344;2023-10-31T06:05:28;1.53;;;0.73;;
46363;SDS011;32071;49.036;9.344;2023-10-31T06:07:53;1.33;;;0.97;;
46363;SDS011;32071;49.036;9.344;2023-10-31T06:10:20;2.13;;;1.30;;
46363;SDS011;32071;49.036;9.344;2023-10-31T06:12:46;1.80;;;0.90;;
46363;SDS011;32071;49.036;9.344;2023-10-31T06:15:12;1.10;;;1.00;;
46363;SDS011;32071;49.036;9.344;2023-10-31T06:17:37;1.20;;;0.90;;
46363;SDS011;32071;49.036;9.344;2023-10-31T06:20:03;1.10;;;1.00;;
46363;SDS011;32071;49.036;9.344;2023-10-31T06:22:29;2.10;;;0.97;;
46363;SDS011;32071;49.036;9.344;2023-10-31T06:24:55;1.90;;;1.10;;
46363;SDS011;32071;49.036;9.344;2023-10-31T06:27:22;2.60;;;1.20;;
46363;SDS011;32071;49.036;9.344;2023-10-31T06:29:48;7.30;;;1.90;;
46363;SDS011;32071;49.036;9.344;2023-10-31T06:32:13;1.47;;;1.27;;
46363;SDS011;32071;49.036;9.344;2023-10-31T06:34:39;1.27;;;1.17;;
46363;SDS011;32071;49.036;9.344;2023-10-31T06:37:05;1.43;;;1.20;;
46363;SDS011;32071;49.036;9.344;2023-10-31T06:39:30;4.43;;;1.33;;
46363;SDS011;32071;49.036;9.344;2023-10-31T06:41:57;4.67;;;1.43;;
46363;SDS011;32071;49.036;9.344;2023-10-31T06:44:23;1.60;;;1.33;;
46363;SDS011;32071;49.036;9.344;2023-10-31T06:46:48;7.90;;;1.90;;
46363;SDS011;32071;49.036;9.344;2023-10-31T06:49:14;2.40;;;2.13;;
46363;SDS011;32071;49.036;9.344;2023-10-31T06:51:40;2.80;;;1.80;;
46363;SDS011;32071;49.036;9.344;2023-10-31T06:54:06;8.03;;;1.93;;
46363;SDS011;32071;49.036;9.344;2023-10-31T06:56:32;4.47;;;2.77;;
46363;SDS011;32071;49.036;9.344;2023-10-31T06:58:57;4.00;;;1.77;;
46363;SDS011;32071;49.036;9.344;2023-10-31T07:01:23;4.30;;;1.30;;
46363;SDS011;32071;49.036;9.344;2023-10-31T07:03:49;3.03;;;1.10;;
46363;SDS011;32071;49.036;9.344;2023-10-31T07:06:15;1.10;;;1.00;;
46363;SDS011;32071;49.036;9.344;2023-10-31T07:08:40;2.10;;;1.50;;
46363;SDS011;32071;49.036;9.344;2023-10-31T07:11:06;1.27;;;1.17;;
46363;SDS011;32071;49.036;9.344;2023-10-31T07:13:31;2.50;;;1.20;;
46363;SDS011;32071;49.036;9.344;2023-10-31T07:15:57;3.57;;;1.20;;
46363;SDS011;32071;49.036;9.344;2023-10-31T07:18:22;1.00;;;1.00;;
46363;SDS011;32071;49.036;9.344;2023-10-31T07:20:48;2.40;;;1.20;;
46363;SDS011;32071;49.036;9.344;2023-10-31T07:23:14;1.37;;;0.87;;
46363;SDS011;32071;49.036;9.344;2023-10-31T07:25:39;1.27;;;1.00;;
46363;SDS011;32071;49.036;9.344;2023-10-31T07:28:06;1.63;;;1.40;;
46363;SDS011;32071;49.036;9.344;2023-10-31T07:30:32;1.70;;;1.33;;
46363;SDS011;32071;49.036;9.344;2023-10-31T07:32:57;2.50;;;1.30;;
46363;SDS011;32071;49.036;9.344;2023-10-31T07:35:23;2.60;;;1.50;;
46363;SDS011;32071;49.036;9.344;2023-10-31T07:37:48;2.00;;;1.50;;
46363;SDS011;32071;49.036;9.344;2023-10-31T07:40:14;2.47;;;1.60;;
46363;SDS011;32071;49.036;9.344;2023-10-31T07:42:39;1.27;;;1.20;;
46363;SDS011;32071;49.036;9.344;2023-10-31T07:45:05;1.80;;;1.50;;
46363;SDS011;32071;49.036;9.344;2023-10-31T07:47:31;1.40;;;1.30;;
46363;SDS011;32071;49.036;9.344;2023-10-31T07:49:57;2.00;;;1.70;;
46363;SDS011;32071;49.036;9.344;2023-10-31T07:52:24;2.00;;;1.80;;
46363;SDS011;32071;49.036;9.344;2023-10-31T07:54:49;1.83;;;1.50;;
46363;SDS011;32071;49.036;9.344;2023-10-31T07:57:15;1.10;;;1.10;;
46363;SDS011;32071;49.036;9.344;2023-10-31T07:59:40;2.17;;;1.63;;
46363;SDS011;32071;49.036;9.344;2023-10-31T08:02:06;2.67;;;1.47;;
46363;SDS011;32071;49.036;9.344;2023-10-31T08:04:32;2.63;;;1.40;;
46363;SDS011;32071;49.036;9.344;2023-10-31T08:06:57;2.37;;;1.40;;
46363;SDS011;32071;49.036;9.344;2023-10-31T08:09:23;3.60;;;1.83;;
46363;SDS011;32071;49.036;9.344;2023-10-31T08:11:48;2.90;;;1.10;;
46363;SDS011;32071;49.036;9.344;2023-10-31T08:14:14;3.07;;;1.30;;
46363;SDS011;32071;49.036;9.344;2023-10-31T08:16:43;2.90;;;1.50;;
46363;SDS011;32071;49.036;9.344;2023-10-31T08:19:09;4.13;;;1.20;;
46363;SDS011;32071;49.036;9.344;2023-10-31T08:21:35;1.67;;;1.50;;
46363;SDS011;32071;49.036;9.344;2023-10-31T08:24:03;2.70;;;1.13;;
46363;SDS011;32071;49.036;9.344;2023-10-31T08:26:30;4.23;;;1.80;;
46363;SDS011;32071;49.036;9.344;2023-10-31T08:28:57;5.30;;;1.47;;
46363;SDS011;32071;49.036;9.344;2023-10-31T08:31:22;1.37;;;1.10;;
46363;SDS011;32071;49.036;9.344;2023-10-31T08:33:48;1.50;;;1.40;;
46363;SDS011;32071;49.036;9.344;2023-10-31T08:36:13;3.50;;;1.23;;
46363;SDS011;32071;49.036;9.344;2023-10-31T08:38:39;1.80;;;1.43;;
46363;SDS011;32071;49.036;9.344;2023-10-31T08:41:05;2.37;;;1.40;;
46363;SDS011;32071;49.036;9.344;2023-10-31T08:43:30;2.63;;;1.47;;
46363;SDS011;32071;49.036;9.344;2023-10-31T08:45:56;1.40;;;1.30;;
46363;SDS011;32071;49.036;9.344;2023-10-31T08:48:21;1.60;;;1.23;;
46363;SDS011;32071;49.036;9.344;2023-10-31T08:50:47;1.83;;;1.60;;
46363;SDS011;32071;49.036;9.344;2023-10-31T08:53:13;2.00;;;1.40;;
46363;SDS011;32071;49.036;9.344;2023-10-31T08:55:39;1.60;;;1.47;;
46363;SDS011;32071;49.036;9.344;2023-10-31T08:58:05;2.27;;;1.60;;
46363;SDS011;32071;49.036;9.344;2023-10-31T09:00:30;2.20;;;1.50;;
46363;SDS011;32071;49.036;9.344;2023-10-31T09:02:56;1.70;;;1.60;;
46363;SDS011;32071;49.036;9.344;2023-10-31T09:05:21;3.07;;;1.13;;
46363;SDS011;32071;49.036;9.344;2023-10-31T09:07:47;1.07;;;1.00;;
46363;SDS011;32071;49.036;9.344;2023-10-31T09:10:13;4.83;;;1.50;;
46363;SDS011;32071;49.036;9.344;2023-10-31T09:12:38;2.67;;;2.47;;
46363;SDS011;32071;49.036;9.344;2023-10-31T09:15:04;2.47;;;1.30;;
46363;SDS011;32071;49.036;9.344;2023-10-31T09:17:30;1.83;;;1.37;;
46363;SDS011;32071;49.036;9.344;2023-10-31T09:19:56;1.37;;;1.20;;
46363;SDS011;32071;49.036;9.344;2023-10-31T09:22:21;1.53;;;1.43;;
46363;SDS011;32071;49.036;9.344;2023-10-31T09:24:47;2.70;;;1.10;;
46363;SDS011;32071;49.036;9.344;2023-10-31T09:27:12;2.20;;;1.20;;
46363;SDS011;32071;49.036;9.344;2023-10-31T09:29:38;3.30;;;1.40;;
46363;SDS011;32071;49.036;9.344;2023-10-31T09:32:03;1.20;;;0.90;;
46363;SDS011;32071;49.036;9.344;2023-10-31T09:34:31;3.80;;;1.50;;
46363;SDS011;32071;49.036;9.344;2023-10-31T09:36:56;1.50;;;1.00;;
46363;SDS011;32071;49.036;9.344;2023-10-31T09:39:23;2.23;;;1.00;;
46363;SDS011;32071;49.036;9.344;2023-10-31T09:41:48;1.87;;;0.97;;
46363;SDS011;32071;49.036;9.344;2023-10-31T09:44:14;1.30;;;1.17;;
46363;SDS011;32071;49.036;9.344;2023-10-31T09:46:39;3.03;;;1.20;;
46363;SDS011;32071;49.036;9.344;2023-10-31T09:49:06;2.60;;;1.13;;
46363;SDS011;32071;49.036;9.344;2023-10-31T09:51:33;3.33;;;1.70;;
46363;SDS011;32071;49.036;9.344;2023-10-31T09:53:59;2.90;;;1.00;;
46363;SDS011;32071;49.036;9.344;2023-10-31T09:56:28;4.40;;;1.77;;
46363;SDS011;32071;49.036;9.344;2023-10-31T09:59:03;4.17;;;1.50;;
46363;SDS011;32071;49.036;9.344;2023-10-31T10:01:29;5.40;;;1.90;;
46363;SDS011;32071;49.036;9.344;2023-10-31T10:03:55;2.53;;;1.20;;
46363;SDS011;32071;49.036;9.344;2023-10-31T10:06:21;2.23;;;1.10;;
46363;SDS011;32071;49.036;9.344;2023-10-31T10:08:48;2.47;;;1.20;;
46363;SDS011;32071;49.036;9.344;2023-10-31T10:11:14;4.53;;;1.07;;
46363;SDS011;32071;49.036;9.344;2023-10-31T10:13:40;2.83;;;1.40;;
46363;SDS011;32071;49.036;9.344;2023-10-31T10:16:06;2.83;;;1.10;;
46363;SDS011;32071;49.036;9.344;2023-10-31T10:18:32;5.33;;;1.20;;
46363;SDS011;32071;49.036;9.344;2023-10-31T10:21:04;3.53;;;1.30;;
46363;SDS011;32071;49.036;9.344;2023-10-31T10:23:31;5.13;;;2.03;;
46363;SDS011;32071;49.036;9.344;2023-10-31T10:25:58;1.87;;;1.23;;
46363;SDS011;32071;49.036;9.344;2023-10-31T10:28:25;4.17;;;1.37;;
46363;SDS011;32071;49.036;9.344;2023-10-31T10:30:52;3.83;;;1.53;;
46363;SDS011;32071;49.036;9.344;2023-10-31T10:33:19;6.37;;;1.43;;
46363;SDS011;32071;49.036;9.344;2023-10-31T10:35:45;1.50;;;0.97;;
46363;SDS011;32071;49.036;9.344;2023-10-31T10:38:12;4.53;;;1.33;;
46363;SDS011;32071;49.036;9.344;2023-10-31T10:40:42;4.57;;;1.67;;
46363;SDS011;32071;49.036;9.344;2023-10-31T10:43:12;1.23;;;1.10;;
46363;SDS011;32071;49.036;9.344;2023-10-31T10:45:43;2.93;;;1.10;;
46363;SDS011;32071;49.036;9.344;2023-10-31T10:48:11;5.33;;;1.87;;
46363;SDS011;32071;49.036;9.344;2023-10-31T10:50:38;2.93;;;1.80;;
46363;SDS011;32071;49.036;9.344;2023-10-31T10:53:09;4.07;;;1.77;;
46363;SDS011;32071;49.036;9.344;2023-10-31T10:55:44;3.07;;;1.77;;
46363;SDS011;32071;49.036;9.344;2023-10-31T10:58:13;2.00;;;1.40;;
46363;SDS011;32071;49.036;9.344;2023-10-31T11:00:50;5.77;;;1.60;;
46363;SDS011;32071;49.036;9.344;2023-10-31T11:03:16;2.20;;;1.57;;
46363;SDS011;32071;49.036;9.344;2023-10-31T11:05:44;3.63;;;1.47;;
46363;SDS011;32071;49.036;9.344;2023-10-31T11:08:10;7.30;;;1.70;;
46363;SDS011;32071;49.036;9.344;2023-10-31T11:10:36;2.83;;;1.70;;
46363;SDS011;32071;49.036;9.344;2023-10-31T11:13:02;2.67;;;1.70;;
46363;SDS011;32071;49.036;9.344;2023-10-31T11:15:28;2.30;;;1.40;;
46363;SDS011;32071;49.036;9.344;2023-10-31T11:17:54;1.47;;;1.30;;
46363;SDS011;32071;49.036;9.344;2023-10-31T11:20:21;3.83;;;1.87;;
46363;SDS011;32071;49.036;9.344;2023-10-31T11:22:46;4.90;;;1.60;;
46363;SDS011;32071;49.036;9.344;2023-10-31T11:25:19;5.57;;;2.47;;
46363;SDS011;32071;49.036;9.344;2023-10-31T11:27:45;3.17;;;1.50;;
46363;SDS011;32071;49.036;9.344;2023-10-31T11:30:33;2.60;;;1.20;;
46363;SDS011;32071;49.036;9.344;2023-10-31T11:32:59;5.30;;;1.47;;
46363;SDS011;32071;49.036;9.344;2023-10-31T11:35:26;4.67;;;1.37;;
46363;SDS011;32071;49.036;9.344;2023-10-31T11:38:04;3.17;;;1.43;;
46363;SDS011;32071;49.036;9.344;2023-10-31T11:41:20;2.47;;;1.30;;
46363;SDS011;32071;49.036;9.344;2023-10-31T11:46:05;4.80;;;1.53;;
46363;SDS011;32071;49.036;9.344;2023-10-31T11:48:47;4.93;;;1.70;;
46363;SDS011;32071;49.036;9.344;2023-10-31T11:51:16;4.60;;;1.70;;
46363;SDS011;32071;49.036;9.344;2023-10-31T11:53:42;2.27;;;1.57;;
46363;SDS011;32071;49.036;9.344;2023-10-31T11:56:12;3.20;;;1.70;;
46363;SDS011;32071;49.036;9.344;2023-10-31T11:58:37;4.73;;;1.67;;
46363;SDS011;32071;49.036;9.344;2023-10-31T12:01:04;2.47;;;1.47;;
46363;SDS011;32071;49.036;9.344;2023-10-31T12:03:40;2.30;;;1.70;;
46363;SDS011;32071;49.036;9.344;2023-10-31T12:06:09;2.77;;;1.10;;
46363;SDS011;32071;49.036;9.344;2023-10-31T12:08:36;2.40;;;1.27;;
46363;SDS011;32071;49.036;9.344;2023-10-31T12:11:16;2.43;;;1.23;;
46363;SDS011;32071;49.036;9.344;2023-10-31T12:13:59;1.90;;;1.20;;
46363;SDS011;32071;49.036;9.344;2023-10-31T12:16:29;5.13;;;1.60;;
46363;SDS011;32071;49.036;9.344;2023-10-31T12:21:41;1.57;;;0.90;;
46363;SDS011;32071;49.036;9.344;2023-10-31T12:24:09;1.53;;;1.07;;
46363;SDS011;32071;49.036;9.344;2023-10-31T12:26:37;1.80;;;1.20;;
46363;SDS011;32071;49.036;9.344;2023-10-31T12:29:07;1.33;;;0.80;;
46363;SDS011;32071;49.036;9.344;2023-10-31T12:31:42;3.60;;;1.00;;
46363;SDS011;32071;49.036;9.344;2023-10-31T12:34:10;1.53;;;0.80;;
46363;SDS011;32071;49.036;9.344;2023-10-31T12:36:36;1.10;;;0.70;;
46363;SDS011;32071;49.036;9.344;2023-10-31T12:39:03;1.00;;;0.90;;
46363;SDS011;32071;49.036;9.344;2023-10-31T12:41:31;1.97;;;1.40;;
46363;SDS011;32071;49.036;9.344;2023-10-31T12:43:57;3.43;;;0.90;;
46363;SDS011;32071;49.036;9.344;2023-10-31T12:48:55;2.67;;;2.07;;
46363;SDS011;32071;49.036;9.344;2023-10-31T12:51:24;3.13;;;2.07;;
46363;SDS011;32071;49.036;9.344;2023-10-31T12:53:51;3.03;;;2.30;;
46363;SDS011;32071;49.036;9.344;2023-10-31T12:59:05;10.83;;;6.93;;
46363;SDS011;32071;49.036;9.344;2023-10-31T13:01:33;2.17;;;2.07;;
46363;SDS011;32071;49.036;9.344;2023-10-31T13:04:00;2.00;;;1.77;;
46363;SDS011;32071;49.036;9.344;2023-10-31T13:06:26;2.30;;;1.00;;
46363;SDS011;32071;49.036;9.344;2023-10-31T13:08:54;3.53;;;2.57;;
46363;SDS011;32071;49.036;9.344;2023-10-31T13:11:21;1.87;;;1.77;;
46363;SDS011;32071;49.036;9.344;2023-10-31T13:13:50;3.63;;;1.10;;
46363;SDS011;32071;49.036;9.344;2023-10-31T13:16:17;1.87;;;1.50;;
46363;SDS011;32071;49.036;9.344;2023-10-31T13:18:42;3.33;;;1.60;;
46363;SDS011;32071;49.036;9.344;2023-10-31T13:21:08;3.00;;;1.50;;
46363;SDS011;32071;49.036;9.344;2023-10-31T13:23:35;4.90;;;1.43;;
46363;SDS011;32071;49.036;9.344;2023-10-31T13:26:03;3.20;;;2.67;;
46363;SDS011;32071;49.036;9.344;2023-10-31T13:28:28;2.67;;;1.80;;
46363;SDS011;32071;49.036;9.344;2023-10-31T13:30:55;2.40;;;2.17;;
46363;SDS011;32071;49.036;9.344;2023-10-31T13:33:21;3.00;;;2.40;;
46363;SDS011;32071;49.036;9.344;2023-10-31T13:35:47;2.33;;;2.17;;
46363;SDS011;32071;49.036;9.344;2023-10-31T13:38:12;5.47;;;2.37;;
46363;SDS011;32071;49.036;9.344;2023-10-31T13:40:38;5.10;;;2.63;;
46363;SDS011;32071;49.036;9.344;2023-10-31T13:43:04;3.90;;;2.50;;
46363;SDS011;32071;49.036;9.344;2023-10-31T13:45:30;5.27;;;4.33;;
46363;SDS011;32071;49.036;9.344;2023-10-31T13:47:56;3.40;;;2.70;;
46363;SDS011;32071;49.036;9.344;2023-10-31T13:50:21;2.60;;;2.40;;
46363;SDS011;32071;49.036;9.344;2023-10-31T13:52:48;5.20;;;2.40;;
46363;SDS011;32071;49.036;9.344;2023-10-31T13:55:14;3.07;;;2.70;;
46363;SDS011;32071;49.036;9.344;2023-10-31T13:57:39;4.57;;;2.20;;
46363;SDS011;32071;49.036;9.344;2023-10-31T14:00:05;3.77;;;2.23;;
46363;SDS011;32071;49.036;9.344;2023-10-31T14:02:33;3.03;;;2.00;;
46363;SDS011;32071;49.036;9.344;2023-10-31T14:05:00;3.47;;;2.30;;
46363;SDS011;32071;49.036;9.344;2023-10-31T14:07:26;4.47;;;2.43;;
46363;SDS011;32071;49.036;9.344;2023-10-31T14:09:52;2.80;;;2.60;;
46363;SDS011;32071;49.036;9.344;2023-10-31T14:12:18;4.40;;;2.43;;
46363;SDS011;32071;49.036;9.344;2023-10-31T14:14:44;5.30;;;2.40;;
46363;SDS011;32071;49.036;9.344;2023-10-31T14:17:13;2.40;;;2.20;;
46363;SDS011;32071;49.036;9.344;2023-10-31T14:19:39;3.40;;;2.87;;
46363;SDS011;32071;49.036;9.344;2023-10-31T14:22:04;5.63;;;3.93;;
46363;SDS011;32071;49.036;9.344;2023-10-31T14:24:30;4.47;;;2.97;;
46363;SDS011;32071;49.036;9.344;2023-10-31T14:26:57;3.27;;;2.73;;
46363;SDS011;32071;49.036;9.344;2023-10-31T14:29:24;3.50;;;2.63;;
46363;SDS011;32071;49.036;9.344;2023-10-31T14:31:49;3.00;;;2.50;;
46363;SDS011;32071;49.036;9.344;2023-10-31T14:34:15;2.87;;;2.57;;
46363;SDS011;32071;49.036;9.344;2023-10-31T14:36:40;4.37;;;2.40;;
46363;SDS011;32071;49.036;9.344;2023-10-31T14:39:06;4.63;;;2.63;;
46363;SDS011;32071;49.036;9.344;2023-10-31T14:41:33;4.07;;;2.47;;
46363;SDS011;32071;49.036;9.344;2023-10-31T14:43:59;5.30;;;2.20;;
46363;SDS011;32071;49.036;9.344;2023-10-31T14:46:26;4.10;;;3.63;;
46363;SDS011;32071;49.036;9.344;2023-10-31T14:48:52;1.97;;;1.80;;
46363;SDS011;32071;49.036;9.344;2023-10-31T14:51:18;1.80;;;1.60;;
46363;SDS011;32071;49.036;9.344;2023-10-31T14:53:43;1.80;;;1.30;;